Time;durP1;ratioP1;P1;durP2;ratioP2;P2;SDS_P1;SDS_P2;PMS_P1;PMS_P2;Temp;Humidity;BMP_temperature;BMP_pressure;BME280_temperature;BME280_humidity;BME280_pressure;Samples;Min_cycle;Max_cycle;Signal;HPM_P1;HPM_P2
2022/06/14 00:00:55;;;;;;;5.07;1.88;;;;;;;;;;5041676;28;20044;-47
2022/06/14 00:03:31;;;;;;;8.85;1.65;;;;;;;;;;5042885;28;20347;-46
2022/06/14 00:06:00;;;;;;;8.88;1.58;;;;;;;;;;5037107;28;20104;-45
2022/06/14 00:08:27;;;;;;;2.08;1.60;;;;;;;;;;5043517;28;20033;-44
2022/06/14 00:10:55;;;;;;;3.72;1.60;;;;;;;;;;5041256;28;20033;-47
2022/06/14 00:13:21;;;;;;;2.85;1.98;;;;;;;;;;5042288;28;20078;-47
2022/06/14 00:15:48;;;;;;;3.78;1.58;;;;;;;;;;5043531;28;20029;-45
2022/06/14 00:18:15;;;;;;;2.45;1.77;;;;;;;;;;5041270;28;20029;-44
2022/06/14 00:20:43;;;;;;;5.47;1.42;;;;;;;;;;5043262;28;20037;-45
2022/06/14 00:23:09;;;;;;;4.80;1.50;;;;;;;;;;5042207;28;20029;-45
2022/06/14 00:25:40;;;;;;;5.07;1.75;;;;;;;;;;5044185;28;20035;-46
2022/06/14 00:28:07;;;;;;;;;;;;;;;;;;5038828;28;20029;-46
2022/06/14 00:30:34;;;;;;;2.60;1.63;;;;;;;;;;5041777;28;19927;-46
2022/06/14 00:33:00;;;;;;;3.10;1.50;;;;;;;;;;5042311;28;20539;-47
2022/06/14 00:35:27;;;;;;;6.88;1.45;;;;;;;;;;5045784;28;20025;-45
2022/06/14 00:37:52;;;;;;;4.03;1.70;;;;;;;;;;5045377;28;20785;-46
2022/06/14 00:40:25;;;;;;;4.63;1.70;;;;;;;;;;5042133;28;20021;-46
2022/06/14 00:42:51;;;;;;;3.33;1.67;;;;;;;;;;5041019;28;20025;-48
2022/06/14 00:45:17;;;;;;;1.60;1.50;;;;;;;;;;5043932;28;20029;-50
2022/06/14 00:47:47;;;;;;;5.18;1.90;;;;;;;;;;5041549;28;20508;-45
2022/06/14 00:50:20;;;;;;;6.40;1.80;;;;;;;;;;5042722;28;20041;-48
2022/06/14 00:52:51;;;;;;;3.42;1.60;;;;;;;;;;5043278;28;20037;-47
2022/06/14 00:55:25;;;;;;;2.53;1.40;;;;;;;;;;5043076;28;20025;-45
2022/06/14 00:57:56;;;;;;;1.35;1.20;;;;;;;;;;5042228;28;20099;-44
2022/06/14 01:00:37;;;;;;;4.30;1.48;;;;;;;;;;5040755;28;20032;-45
2022/06/14 01:03:14;;;;;;;1.63;1.45;;;;;;;;;;5040138;28;20460;-46
2022/06/14 01:06:05;;;;;;;4.90;1.63;;;;;;;;;;5039677;28;20029;-45
2022/06/14 01:08:35;;;;;;;4.07;1.58;;;;;;;;;;5039254;28;20033;-47
2022/06/14 01:11:04;;;;;;;1.55;1.33;;;;;;;;;;5041787;28;20033;-45
2022/06/14 01:13:29;;;;;;;2.40;1.60;;;;;;;;;;5043903;28;20486;-46
2022/06/14 01:15:56;;;;;;;3.22;1.50;;;;;;;;;;5045167;28;20041;-48
2022/06/14 01:18:23;;;;;;;8.57;1.63;;;;;;;;;;5042576;28;20500;-44
2022/06/14 01:20:49;;;;;;;4.78;1.50;;;;;;;;;;5040433;28;20072;-46
2022/06/14 01:23:16;;;;;;;2.50;1.52;;;;;;;;;;5038975;28;20093;-47
2022/06/14 01:25:49;;;;;;;2.88;1.52;;;;;;;;;;5040776;28;20079;-47
2022/06/14 01:28:17;;;;;;;3.72;1.50;;;;;;;;;;5041235;28;20048;-45
2022/06/14 01:30:48;;;;;;;2.88;1.60;;;;;;;;;;5041324;28;20064;-50
2022/06/14 01:33:18;;;;;;;5.25;1.45;;;;;;;;;;5038964;28;20397;-46
2022/06/14 01:35:49;;;;;;;1.92;1.33;;;;;;;;;;5041959;28;20057;-46
2022/06/14 01:38:15;;;;;;;6.95;1.60;;;;;;;;;;5040601;28;20027;-46
2022/06/14 01:40:41;;;;;;;4.53;1.50;;;;;;;;;;5039334;28;20849;-46
2022/06/14 01:43:35;;;;;;;1.88;1.40;;;;;;;;;;5040402;28;20045;-49
2022/06/14 01:46:20;;;;;;;5.68;1.50;;;;;;;;;;5042478;28;20108;-48
2022/06/14 01:48:55;;;;;;;5.75;1.60;;;;;;;;;;5038440;28;20029;-47
2022/06/14 01:51:53;;;;;;;5.82;1.48;;;;;;;;;;5040592;28;20040;-47
2022/06/14 01:54:57;;;;;;;10.95;2.20;;;;;;;;;;5035061;28;20029;-45
2022/06/14 01:57:37;;;;;;;3.70;1.60;;;;;;;;;;5040536;28;20033;-44
2022/06/14 02:00:10;;;;;;;3.35;1.60;;;;;;;;;;5040154;28;20025;-47
2022/06/14 02:02:41;;;;;;;4.10;1.63;;;;;;;;;;5037732;28;20079;-45
2022/06/14 02:05:24;;;;;;;4.70;1.48;;;;;;;;;;5039787;28;20029;-45
2022/06/14 02:07:50;;;;;;;1.55;1.27;;;;;;;;;;5040331;28;20076;-46
2022/06/14 02:10:52;;;;;;;4.63;1.52;;;;;;;;;;5043763;28;20059;-45
2022/06/14 02:13:39;;;;;;;1.23;1.13;;;;;;;;;;5039454;28;20045;-45
2022/06/14 02:16:05;;;;;;;2.83;1.63;;;;;;;;;;5043743;28;20123;-47
2022/06/14 02:18:35;;;;;;;1.77;1.33;;;;;;;;;;5039526;28;20091;-45
2022/06/14 02:21:15;;;;;;;4.07;1.60;;;;;;;;;;5039135;28;20075;-46
2022/06/14 02:23:53;;;;;;;2.85;2.08;;;;;;;;;;5044254;28;20042;-46
2022/06/14 02:26:27;;;;;;;3.55;1.38;;;;;;;;;;5045846;28;20021;-50
2022/06/14 02:28:58;;;;;;;3.22;1.60;;;;;;;;;;5045059;28;20148;-48
2022/06/14 02:31:53;;;;;;;6.50;1.60;;;;;;;;;;5045057;28;20094;-46
2022/06/14 02:34:54;;;;;;;4.25;1.10;;;;;;;;;;5044360;28;20032;-47
2022/06/14 02:37:30;;;;;;;2.38;1.52;;;;;;;;;;5044162;28;20041;-45
2022/06/14 02:40:06;;;;;;;5.20;1.50;;;;;;;;;;5046001;28;20108;-46
2022/06/14 02:43:06;;;;;;;2.20;1.38;;;;;;;;;;5044342;28;20033;-47
2022/06/14 02:45:48;;;;;;;5.53;1.60;;;;;;;;;;5043405;28;20485;-48
2022/06/14 02:48:19;;;;;;;2.75;1.30;;;;;;;;;;5039184;28;20029;-45
2022/06/14 02:50:56;;;;;;;1.77;1.33;;;;;;;;;;5040504;28;20017;-45
2022/06/14 02:53:45;;;;;;;2.65;1.25;;;;;;;;;;5044736;28;20437;-44
2022/06/14 02:56:17;;;;;;;1.77;1.33;;;;;;;;;;5042705;28;20032;-45
2022/06/14 02:58:45;;;;;;;8.68;1.50;;;;;;;;;;5045779;28;20078;-46
2022/06/14 03:01:18;;;;;;;4.10;1.40;;;;;;;;;;5044699;28;20386;-46
2022/06/14 03:03:44;;;;;;;3.08;1.48;;;;;;;;;;5042413;28;20104;-45
2022/06/14 03:06:42;;;;;;;1.42;1.25;;;;;;;;;;5045925;28;20021;-47
2022/06/14 03:09:14;;;;;;;5.32;1.98;;;;;;;;;;5043408;28;20025;-45
2022/06/14 03:11:57;;;;;;;4.45;1.52;;;;;;;;;;5041749;28;20023;-47
2022/06/14 03:14:29;;;;;;;1.45;1.10;;;;;;;;;;5046276;28;20094;-52
2022/06/14 03:17:04;;;;;;;2.25;1.40;;;;;;;;;;5042672;28;20159;-45
2022/06/14 03:20:07;;;;;;;2.42;1.20;;;;;;;;;;5044630;28;20025;-47
2022/06/14 03:23:27;;;;;;;2.40;1.33;;;;;;;;;;5003871;28;20037;-46
2022/06/14 03:26:00;;;;;;;1.60;1.15;;;;;;;;;;4975278;28;20030;-45
2022/06/14 03:28:28;;;;;;;5.82;1.48;;;;;;;;;;4975560;28;20039;-45
2022/06/14 03:31:12;;;;;;;4.18;1.20;;;;;;;;;;4973235;28;20134;-44
2022/06/14 03:33:45;;;;;;;3.85;1.30;;;;;;;;;;4974817;28;20044;-44
2022/06/14 03:36:11;;;;;;;4.72;1.40;;;;;;;;;;4974694;28;20503;-46
2022/06/14 03:38:44;;;;;;;5.13;1.45;;;;;;;;;;4973274;28;20506;-45
2022/06/14 03:41:12;;;;;;;3.10;1.40;;;;;;;;;;4975060;28;20783;-45
2022/06/14 03:43:39;;;;;;;2.85;1.20;;;;;;;;;;4973602;28;20061;-45
2022/06/14 03:46:13;;;;;;;4.82;1.75;;;;;;;;;;4974818;28;20122;-45
2022/06/14 03:48:41;;;;;;;2.03;1.38;;;;;;;;;;4971503;28;20031;-45
2022/06/14 03:51:22;;;;;;;3.95;1.40;;;;;;;;;;4977824;28;20056;-45
2022/06/14 03:54:06;;;;;;;4.95;1.50;;;;;;;;;;4976167;28;20043;-47
2022/06/14 03:56:58;;;;;;;5.65;1.15;;;;;;;;;;4974639;28;20435;-50
2022/06/14 03:59:54;;;;;;;2.45;1.42;;;;;;;;;;4999122;28;20666;-46
2022/06/14 04:02:53;;;;;;;2.60;1.13;;;;;;;;;;5035958;28;20956;-47
2022/06/14 04:05:41;;;;;;;2.22;1.52;;;;;;;;;;5037906;28;20044;-46
2022/06/14 04:08:38;;;;;;;2.15;1.73;;;;;;;;;;5042105;28;20061;-45
2022/06/14 04:11:13;;;;;;;4.88;1.33;;;;;;;;;;5043135;28;20124;-47
2022/06/14 04:13:51;;;;;;;5.78;1.50;;;;;;;;;;5040331;28;20082;-45
2022/06/14 04:16:30;;;;;;;2.00;1.52;;;;;;;;;;5045342;28;20017;-45
2022/06/14 04:19:14;;;;;;;2.78;1.42;;;;;;;;;;5044359;28;20091;-44
2022/06/14 04:21:51;;;;;;;3.88;1.55;;;;;;;;;;5040747;28;20033;-44
2022/06/14 04:24:25;;;;;;;6.75;1.63;;;;;;;;;;5040419;28;20103;-45
2022/06/14 04:26:57;;;;;;;7.95;1.80;;;;;;;;;;5040865;28;20040;-46
2022/06/14 04:29:48;;;;;;;1.80;1.30;;;;;;;;;;5040964;28;20077;-46
2022/06/14 04:32:22;;;;;;;5.72;1.50;;;;;;;;;;5041824;28;20068;-49
2022/06/14 04:34:54;;;;;;;2.13;1.42;;;;;;;;;;5044838;28;20047;-50
2022/06/14 04:37:28;;;;;;;5.30;1.65;;;;;;;;;;5045859;28;20037;-45
2022/06/14 04:40:20;;;;;;;8.30;1.77;;;;;;;;;;5044950;28;20079;-46
2022/06/14 04:42:54;;;;;;;5.78;1.40;;;;;;;;;;5041092;28;20060;-45
2022/06/14 04:45:35;;;;;;;3.95;1.48;;;;;;;;;;5042592;28;20029;-47
2022/06/14 04:48:17;;;;;;;5.55;1.55;;;;;;;;;;5036318;28;20029;-46
2022/06/14 04:50:58;;;;;;;5.78;1.55;;;;;;;;;;5032525;28;20084;-47
2022/06/14 04:53:36;;;;;;;2.75;1.50;;;;;;;;;;5034909;28;20052;-48
2022/06/14 04:56:10;;;;;;;2.35;1.27;;;;;;;;;;5039690;28;20024;-45
2022/06/14 04:58:55;;;;;;;2.88;1.42;;;;;;;;;;5044014;28;20038;-47
2022/06/14 05:01:27;;;;;;;2.72;1.60;;;;;;;;;;5042913;28;20029;-46
2022/06/14 05:04:12;;;;;;;6.63;1.75;;;;;;;;;;5041297;28;20029;-46
2022/06/14 05:06:54;;;;;;;4.18;1.52;;;;;;;;;;5037940;28;20032;-48
2022/06/14 05:09:29;;;;;;;2.25;1.48;;;;;;;;;;5029104;28;20101;-44
2022/06/14 05:12:06;;;;;;;4.70;1.60;;;;;;;;;;5031907;28;20067;-49
2022/06/14 05:14:35;;;;;;;3.03;1.67;;;;;;;;;;5033672;28;20031;-48
2022/06/14 05:17:08;;;;;;;10.32;1.88;;;;;;;;;;5033967;28;20037;-47
2022/06/14 05:19:56;;;;;;;7.95;1.90;;;;;;;;;;5035360;28;20637;-48
2022/06/14 05:22:47;;;;;;;6.15;1.58;;;;;;;;;;5040653;28;20034;-47
2022/06/14 05:25:14;;;;;;;8.20;1.75;;;;;;;;;;5032914;28;20615;-50
2022/06/14 05:28:03;;;;;;;7.25;1.70;;;;;;;;;;5039262;28;20021;-46
2022/06/14 05:30:34;;;;;;;6.50;1.48;;;;;;;;;;5040755;28;20087;-48
2022/06/14 05:33:10;;;;;;;8.80;1.80;;;;;;;;;;5036219;28;20059;-46
2022/06/14 05:36:05;;;;;;;21.23;2.10;;;;;;;;;;5036292;28;20385;-45
2022/06/14 05:38:59;;;;;;;8.63;2.15;;;;;;;;;;5041074;28;20029;-45
2022/06/14 05:41:32;;;;;;;4.68;2.10;;;;;;;;;;5038297;28;20048;-49
2022/06/14 05:44:08;;;;;;;5.25;1.85;;;;;;;;;;5036867;28;20044;-46
2022/06/14 05:46:51;;;;;;;5.97;2.05;;;;;;;;;;5026237;28;20028;-51
2022/06/14 05:49:26;;;;;;;6.75;2.17;;;;;;;;;;5034676;28;20024;-46
2022/06/14 05:51:51;;;;;;;7.38;2.78;;;;;;;;;;5038282;28;20078;-44
2022/06/14 05:54:24;;;;;;;10.15;2.30;;;;;;;;;;5035824;28;20565;-45
2022/06/14 05:56:59;;;;;;;5.07;2.00;;;;;;;;;;5042629;28;20036;-45
2022/06/14 05:59:35;;;;;;;8.63;2.30;;;;;;;;;;5042759;28;20028;-47
2022/06/14 06:02:32;;;;;;;7.20;1.80;;;;;;;;;;5042317;28;20048;-47
2022/06/14 06:05:27;;;;;;;9.48;2.40;;;;;;;;;;5033153;28;20090;-47
2022/06/14 06:08:01;;;;;;;2.80;1.90;;;;;;;;;;5043290;28;20029;-46
2022/06/14 06:10:33;;;;;;;8.18;2.10;;;;;;;;;;5042533;28;20389;-47
2022/06/14 06:13:00;;;;;;;;;;;;;;;;;;5043115;28;20045;-45
2022/06/14 06:15:31;;;;;;;9.05;1.95;;;;;;;;;;5034057;28;19952;-50
2022/06/14 06:18:12;;;;;;;5.03;1.98;;;;;;;;;;5040166;28;20056;-48
2022/06/14 06:20:53;;;;;;;3.85;1.90;;;;;;;;;;5040183;28;20033;-45
2022/06/14 06:23:45;;;;;;;9.77;1.85;;;;;;;;;;5037931;28;20033;-46
2022/06/14 06:26:14;;;;;;;5.18;2.40;;;;;;;;;;5039705;28;20453;-45
2022/06/14 06:28:47;;;;;;;4.82;2.00;;;;;;;;;;5037980;28;20029;-45
2022/06/14 06:31:35;;;;;;;9.05;2.28;;;;;;;;;;5039498;28;20116;-45
2022/06/14 06:34:04;;;;;;;9.18;2.00;;;;;;;;;;5041337;28;20033;-46
2022/06/14 06:36:42;;;;;;;3.60;2.10;;;;;;;;;;5040751;28;20402;-47
2022/06/14 06:39:34;;;;;;;7.90;2.42;;;;;;;;;;5039441;28;20044;-46
2022/06/14 06:42:19;;;;;;;11.70;2.45;;;;;;;;;;5034528;28;20576;-47
2022/06/14 06:45:00;;;;;;;4.82;2.00;;;;;;;;;;5039280;28;20492;-45
2022/06/14 06:47:38;;;;;;;5.55;2.30;;;;;;;;;;5037781;28;20109;-49
2022/06/14 06:50:12;;;;;;;2.97;1.90;;;;;;;;;;5035648;28;20115;-50
2022/06/14 06:52:43;;;;;;;3.35;1.90;;;;;;;;;;5038596;28;20033;-45
2022/06/14 06:55:32;;;;;;;4.65;2.10;;;;;;;;;;5043181;28;20030;-46
2022/06/14 06:58:01;;;;;;;13.27;2.85;;;;;;;;;;5039360;28;20025;-45
2022/06/14 07:00:29;;;;;;;3.65;2.03;;;;;;;;;;5038654;28;20098;-46
2022/06/14 07:03:01;;;;;;;10.50;2.40;;;;;;;;;;5039953;28;20044;-49
2022/06/14 07:05:27;;;;;;;6.72;2.13;;;;;;;;;;5041312;28;20045;-44
2022/06/14 07:08:09;;;;;;;8.13;1.98;;;;;;;;;;5038863;28;20485;-45
2022/06/14 07:10:38;;;;;;;;;;;;;;;;;;5039541;28;20033;-47
2022/06/14 07:13:32;;;;;;;3.45;2.17;;;;;;;;;;5045087;28;20019;-45
2022/06/14 07:16:12;;;;;;;4.10;2.10;;;;;;;;;;5046908;28;20037;-45
2022/06/14 07:19:16;;;;;;;13.40;2.28;;;;;;;;;;5044037;28;20032;-47
2022/06/14 07:21:49;;;;;;;21.23;3.42;;;;;;;;;;5043700;28;20112;-50
2022/06/14 07:24:17;;;;;;;10.30;3.65;;;;;;;;;;5042702;28;20478;-46
2022/06/14 07:26:52;;;;;;;14.07;3.60;;;;;;;;;;5042512;28;20032;-45
2022/06/14 07:29:38;;;;;;;17.77;3.38;;;;;;;;;;5042214;28;20049;-49
2022/06/14 07:32:12;;;;;;;15.18;3.78;;;;;;;;;;5045769;28;20034;-49
2022/06/14 07:34:41;;;;;;;11.65;3.17;;;;;;;;;;5044116;28;20102;-47
2022/06/14 07:37:39;;;;;;;5.55;2.80;;;;;;;;;;5038714;28;20400;-48
2022/06/14 07:40:14;;;;;;;28.05;4.68;;;;;;;;;;5042859;28;20037;-48
2022/06/14 07:42:49;;;;;;;8.05;2.80;;;;;;;;;;5041347;28;20569;-45
2022/06/14 07:45:31;;;;;;;8.70;3.15;;;;;;;;;;5043022;28;20358;-48
2022/06/14 07:48:16;;;;;;;7.50;3.13;;;;;;;;;;5042059;28;20444;-48
2022/06/14 07:50:54;;;;;;;11.15;3.00;;;;;;;;;;5039440;28;20397;-45
2022/06/14 07:53:29;;;;;;;10.85;2.80;;;;;;;;;;5042049;28;20075;-45
2022/06/14 07:56:02;;;;;;;12.27;3.33;;;;;;;;;;5038663;28;20416;-46
2022/06/14 07:58:34;;;;;;;13.07;3.47;;;;;;;;;;5042802;28;20025;-47
2022/06/14 08:01:07;;;;;;;14.60;3.97;;;;;;;;;;5046327;28;20021;-48
2022/06/14 08:03:43;;;;;;;18.58;3.65;;;;;;;;;;5042126;28;20052;-46
2022/06/14 08:06:29;;;;;;;9.02;3.50;;;;;;;;;;5042811;28;20029;-47
2022/06/14 08:09:27;;;;;;;8.98;4.38;;;;;;;;;;5037762;28;20036;-48
2022/06/14 08:11:58;;;;;;;4.50;3.50;;;;;;;;;;5038014;28;20044;-45
2022/06/14 08:14:49;;;;;;;10.98;3.88;;;;;;;;;;5044334;28;20064;-47
2022/06/14 08:17:22;;;;;;;10.40;3.55;;;;;;;;;;5043390;28;20044;-47
2022/06/14 08:19:59;;;;;;;8.93;3.53;;;;;;;;;;5044496;28;20064;-47
2022/06/14 08:22:44;;;;;;;20.98;4.55;;;;;;;;;;5043161;28;20024;-46
2022/06/14 08:25:17;;;;;;;8.82;4.38;;;;;;;;;;5041333;28;20128;-46
2022/06/14 08:28:22;;;;;;;12.38;4.07;;;;;;;;;;5040513;28;20084;-45
2022/06/14 08:31:00;;;;;;;15.13;4.75;;;;;;;;;;5004587;28;20097;-47
2022/06/14 08:33:41;;;;;;;18.40;4.35;;;;;;;;;;5000413;28;20542;-48
2022/06/14 08:36:09;;;;;;;19.55;3.33;;;;;;;;;;4987357;28;20426;-46
2022/06/14 08:38:38;;;;;;;10.77;3.92;;;;;;;;;;5003740;28;20042;-47
2022/06/14 08:41:12;;;;;;;7.50;3.33;;;;;;;;;;5001730;28;20121;-46
2022/06/14 08:43:44;;;;;;;14.00;3.10;;;;;;;;;;5002420;28;20084;-50
2022/06/14 08:46:11;;;;;;;;;;;;;;;;;;5005770;28;20367;-46
2022/06/14 08:48:47;;;;;;;6.13;2.72;;;;;;;;;;5005945;28;19917;-48
2022/06/14 08:51:34;;;;;;;10.52;2.60;;;;;;;;;;5003123;28;20026;-46
2022/06/14 08:54:37;;;;;;;10.18;2.90;;;;;;;;;;5005030;28;20041;-50
2022/06/14 08:57:28;;;;;;;14.55;3.40;;;;;;;;;;5000221;28;20032;-48
2022/06/14 09:00:06;;;;;;;19.92;3.33;;;;;;;;;;4993884;28;20040;-46
2022/06/14 09:02:49;;;;;;;7.72;2.85;;;;;;;;;;5005869;28;20025;-49
2022/06/14 09:05:33;;;;;;;9.80;2.70;;;;;;;;;;5005816;28;20075;-52
2022/06/14 09:07:58;;;;;;;6.82;2.60;;;;;;;;;;5030414;28;20112;-45
2022/06/14 09:10:58;;;;;;;7.20;2.25;;;;;;;;;;5042684;28;20595;-45
2022/06/14 09:13:36;;;;;;;12.40;3.00;;;;;;;;;;5040355;28;20455;-48
2022/06/14 09:16:15;;;;;;;16.90;2.75;;;;;;;;;;5040847;28;20049;-48
2022/06/14 09:19:27;;;;;;;14.45;3.42;;;;;;;;;;5041295;28;20036;-45
2022/06/14 09:22:08;;;;;;;9.25;3.10;;;;;;;;;;5043571;28;20493;-48
2022/06/14 09:24:55;;;;;;;17.40;3.50;;;;;;;;;;5039972;28;20429;-51
2022/06/14 09:27:48;;;;;;;20.50;3.08;;;;;;;;;;5041964;28;20030;-46
2022/06/14 09:30:35;;;;;;;16.75;3.20;;;;;;;;;;5036712;28;20132;-49
2022/06/14 09:33:09;;;;;;;12.85;3.67;;;;;;;;;;5042916;28;20031;-49
2022/06/14 09:35:40;;;;;;;16.35;3.30;;;;;;;;;;5040028;28;20137;-48
2022/06/14 09:38:57;;;;;;;14.20;3.17;;;;;;;;;;5041545;28;20096;-47
2022/06/14 09:41:45;;;;;;;24.20;3.28;;;;;;;;;;4996709;28;20093;-49
2022/06/14 09:44:19;;;;;;;14.85;2.90;;;;;;;;;;4998213;28;20584;-46
2022/06/14 09:47:53;;;;;;;9.10;2.65;;;;;;;;;;4996463;28;20052;-46
2022/06/14 09:50:45;;;;;;;8.52;2.78;;;;;;;;;;4933277;29;20208;-45
2022/06/14 09:53:55;;;;;;;12.82;2.85;;;;;;;;;;4929520;29;20035;-47
2022/06/14 09:56:36;;;;;;;13.50;3.03;;;;;;;;;;4935275;29;20040;-46
2022/06/14 09:59:47;;;;;;;10.40;3.00;;;;;;;;;;4934787;29;20043;-47
2022/06/14 10:02:40;;;;;;;8.90;2.58;;;;;;;;;;4928944;29;20544;-48
2022/06/14 10:05:34;;;;;;;18.45;3.00;;;;;;;;;;4930260;29;20044;-48
2022/06/14 10:08:35;;;;;;;18.27;3.45;;;;;;;;;;4933650;29;20126;-48
2022/06/14 10:11:34;;;;;;;8.38;2.50;;;;;;;;;;4915393;29;20036;-50
2022/06/14 10:14:22;;;;;;;10.48;2.90;;;;;;;;;;4913229;29;20453;-47
2022/06/14 10:17:06;;;;;;;9.07;2.60;;;;;;;;;;4909192;29;20491;-48
2022/06/14 10:19:50;;;;;;;10.60;2.63;;;;;;;;;;4919544;28;20413;-47
2022/06/14 10:22:18;;;;;;;7.20;2.80;;;;;;;;;;4969666;28;20117;-47
2022/06/14 10:24:55;;;;;;;7.60;2.33;;;;;;;;;;4973047;28;20396;-49
2022/06/14 10:28:11;;;;;;;6.35;2.65;;;;;;;;;;4971303;28;20101;-45
2022/06/14 10:30:55;;;;;;;10.13;2.70;;;;;;;;;;4965734;28;20096;-48
2022/06/14 10:33:36;;;;;;;12.10;2.85;;;;;;;;;;4975125;28;20046;-47
2022/06/14 10:36:39;;;;;;;12.23;3.17;;;;;;;;;;4971186;28;20089;-46
2022/06/14 10:39:11;;;;;;;12.63;2.83;;;;;;;;;;4975777;28;20034;-47
2022/06/14 10:41:58;;;;;;;13.98;2.78;;;;;;;;;;4972364;28;20058;-47
2022/06/14 10:44:34;;;;;;;7.68;2.90;;;;;;;;;;4979617;28;20066;-45
2022/06/14 10:47:30;;;;;;;8.10;2.42;;;;;;;;;;5019870;28;20443;-50
2022/06/14 10:50:28;;;;;;;9.88;2.22;;;;;;;;;;5035859;28;20039;-50
2022/06/14 10:53:31;;;;;;;4.68;2.00;;;;;;;;;;5043685;28;20519;-49
2022/06/14 10:56:26;;;;;;;5.65;2.30;;;;;;;;;;5043957;28;20068;-47
2022/06/14 10:59:12;;;;;;;8.68;2.75;;;;;;;;;;5035450;28;20044;-50
2022/06/14 11:02:01;;;;;;;15.93;2.42;;;;;;;;;;5041233;28;20028;-46
2022/06/14 11:04:59;;;;;;;12.57;2.53;;;;;;;;;;5045531;28;20037;-48
2022/06/14 11:07:31;;;;;;;6.55;2.38;;;;;;;;;;5045675;28;20025;-48
2022/06/14 11:10:19;;;;;;;12.98;2.40;;;;;;;;;;5044302;28;20091;-49
2022/06/14 11:12:54;;;;;;;12.05;2.45;;;;;;;;;;5044210;28;20029;-47
2022/06/14 11:15:42;;;;;;;6.18;2.28;;;;;;;;;;5043150;28;20114;-46
2022/06/14 11:18:24;;;;;;;3.88;2.20;;;;;;;;;;5042562;28;20386;-46
2022/06/14 11:20:56;;;;;;;;;;;;;;;;;;5045656;28;20109;-47
2022/06/14 11:23:44;;;;;;;5.30;2.42;;;;;;;;;;5041170;28;20357;-48
2022/06/14 11:26:41;;;;;;;4.35;2.50;;;;;;;;;;5046965;28;20029;-46
2022/06/14 11:29:18;;;;;;;7.80;1.77;;;;;;;;;;5043403;28;20051;-49
2022/06/14 11:31:55;;;;;;;5.15;2.00;;;;;;;;;;5041522;28;20040;-46
2022/06/14 11:35:03;;;;;;;2.60;1.40;;;;;;;;;;5041808;28;20033;-46
2022/06/14 11:37:57;;;;;;;9.25;1.90;;;;;;;;;;5042458;28;20029;-48
2022/06/14 11:40:32;;;;;;;7.22;1.65;;;;;;;;;;5044751;28;20079;-48
2022/06/14 11:43:36;;;;;;;8.27;1.90;;;;;;;;;;5044928;28;20029;-49
2022/06/14 11:46:37;;;;;;;11.18;1.88;;;;;;;;;;5046734;28;20029;-48
2022/06/14 11:49:14;;;;;;;5.72;2.10;;;;;;;;;;5042762;28;20041;-47
2022/06/14 11:52:06;;;;;;;3.28;1.85;;;;;;;;;;5042601;28;20029;-49
2022/06/14 11:54:54;;;;;;;2.92;1.67;;;;;;;;;;5040594;28;20072;-47
2022/06/14 11:57:41;;;;;;;6.18;2.25;;;;;;;;;;5043135;28;20127;-50
2022/06/14 12:00:29;;;;;;;5.80;1.80;;;;;;;;;;5042504;28;20107;-48
2022/06/14 12:03:23;;;;;;;6.70;2.00;;;;;;;;;;5040062;28;20409;-48
2022/06/14 12:06:21;;;;;;;5.80;2.30;;;;;;;;;;5044001;28;20138;-46
2022/06/14 12:09:02;;;;;;;9.48;2.15;;;;;;;;;;5041671;28;20047;-48
2022/06/14 12:11:38;;;;;;;3.72;2.00;;;;;;;;;;5042489;28;20025;-46
2022/06/14 12:14:29;;;;;;;11.13;2.67;;;;;;;;;;5045275;28;20036;-47
2022/06/14 12:17:10;;;;;;;13.35;2.25;;;;;;;;;;5040304;28;20072;-49
2022/06/14 12:19:37;;;;;;;5.05;2.13;;;;;;;;;;5044245;28;20032;-46
2022/06/14 12:22:34;;;;;;;6.97;2.25;;;;;;;;;;5045040;28;20489;-46
2022/06/14 12:28:22;;;;;;;5.75;1.80;;;;;;;;;;5043505;28;20064;-49
2022/06/14 12:30:52;;;;;;;9.90;2.30;;;;;;;;;;5043660;28;20056;-46
2022/06/14 12:33:29;;;;;;;8.35;1.80;;;;;;;;;;5040906;28;20036;-48
2022/06/14 12:36:33;;;;;;;11.60;2.58;;;;;;;;;;5039583;28;20516;-46
2022/06/14 12:39:07;;;;;;;5.53;2.05;;;;;;;;;;5004097;28;20077;-51
2022/06/14 12:41:45;;;;;;;7.53;2.58;;;;;;;;;;5006699;28;20457;-46
2022/06/14 12:44:34;;;;;;;5.93;2.40;;;;;;;;;;5004142;28;20042;-47
2022/06/14 12:47:01;;;;;;;5.57;2.30;;;;;;;;;;5002095;28;20514;-46
2022/06/14 12:49:35;;;;;;;10.32;2.72;;;;;;;;;;5006247;28;20077;-46
2022/06/14 12:52:10;;;;;;;7.10;2.53;;;;;;;;;;5005320;28;20037;-46
2022/06/14 12:54:52;;;;;;;8.40;2.58;;;;;;;;;;5003654;28;20549;-48
2022/06/14 12:57:18;;;;;;;15.05;2.67;;;;;;;;;;5002884;28;20057;-46
2022/06/14 12:59:51;;;;;;;11.38;2.75;;;;;;;;;;5000249;28;20442;-45
2022/06/14 13:02:38;;;;;;;9.60;2.50;;;;;;;;;;5003354;28;20029;-45
2022/06/14 13:05:10;;;;;;;10.65;2.50;;;;;;;;;;5004773;28;20029;-47
2022/06/14 13:07:39;;;;;;;6.28;2.20;;;;;;;;;;5004723;28;20030;-46
2022/06/14 13:10:28;;;;;;;6.88;1.80;;;;;;;;;;5006066;28;20033;-47
2022/06/14 13:13:05;;;;;;;7.55;2.25;;;;;;;;;;5004379;28;20093;-47
2022/06/14 13:15:56;;;;;;;6.40;2.88;;;;;;;;;;5018627;28;20039;-46
2022/06/14 13:18:21;;;;;;;6.13;2.10;;;;;;;;;;5041899;28;20532;-46
2022/06/14 13:21:08;;;;;;;9.68;2.30;;;;;;;;;;5040944;28;20060;-47
2022/06/14 13:23:46;;;;;;;7.78;2.15;;;;;;;;;;5041293;28;20154;-46
2022/06/14 13:26:22;;;;;;;6.70;2.70;;;;;;;;;;5040225;28;20037;-48
2022/06/14 13:28:47;;;;;;;12.43;2.83;;;;;;;;;;5040761;28;20072;-45
2022/06/14 13:31:22;;;;;;;7.40;2.70;;;;;;;;;;5043177;28;20084;-46
2022/06/14 13:34:21;;;;;;;9.55;2.47;;;;;;;;;;5042106;28;20503;-46
2022/06/14 13:37:17;;;;;;;12.77;2.25;;;;;;;;;;5036934;28;20041;-47
2022/06/14 13:40:12;;;;;;;5.43;2.30;;;;;;;;;;5040205;28;20300;-46
2022/06/14 13:42:59;;;;;;;5.68;2.13;;;;;;;;;;5037453;28;20497;-47
2022/06/14 13:45:41;;;;;;;7.03;2.17;;;;;;;;;;5037602;28;20112;-50
2022/06/14 13:48:27;;;;;;;7.00;2.38;;;;;;;;;;5040855;28;20481;-45
2022/06/14 13:50:58;;;;;;;5.82;2.00;;;;;;;;;;5041768;28;20033;-46
2022/06/14 13:53:47;;;;;;;5.25;1.70;;;;;;;;;;5041168;28;20040;-46
2022/06/14 13:56:24;;;;;;;2.95;1.70;;;;;;;;;;4993711;28;20042;-47
2022/06/14 13:59:01;;;;;;;10.25;1.90;;;;;;;;;;4996589;28;20089;-46
2022/06/14 14:01:53;;;;;;;5.72;2.33;;;;;;;;;;4986722;28;20037;-47
2022/06/14 14:04:38;;;;;;;3.97;1.90;;;;;;;;;;4997701;28;20030;-49
2022/06/14 14:07:10;;;;;;;5.60;2.10;;;;;;;;;;4994392;28;20049;-46
2022/06/14 14:09:54;;;;;;;4.10;2.20;;;;;;;;;;4998527;28;20498;-46
2022/06/14 14:12:59;;;;;;;8.57;2.45;;;;;;;;;;4999844;28;20696;-49
2022/06/14 14:15:31;;;;;;;11.57;2.13;;;;;;;;;;4997495;28;20035;-47
2022/06/14 14:18:01;;;;;;;14.57;2.65;;;;;;;;;;5002374;28;20443;-52
2022/06/14 14:20:33;;;;;;;13.73;2.25;;;;;;;;;;4990524;28;20037;-45
2022/06/14 14:23:16;;;;;;;2.38;1.90;;;;;;;;;;5003394;28;20541;-48
2022/06/14 14:26:11;;;;;;;9.63;2.40;;;;;;;;;;5000404;28;20031;-46
2022/06/14 14:28:52;;;;;;;10.80;2.22;;;;;;;;;;4995546;28;20049;-46
2022/06/14 14:31:24;;;;;;;4.72;2.00;;;;;;;;;;5004145;28;20117;-47
2022/06/14 14:34:24;;;;;;;6.88;1.98;;;;;;;;;;5032608;28;20041;-47
2022/06/14 14:37:01;;;;;;;7.18;2.17;;;;;;;;;;5042582;28;20450;-46
2022/06/14 14:39:29;;;;;;;7.72;1.98;;;;;;;;;;5044480;28;20032;-47
2022/06/14 14:42:03;;;;;;;6.10;2.28;;;;;;;;;;5041333;28;20478;-50
2022/06/14 14:44:31;;;;;;;2.45;1.75;;;;;;;;;;5042048;28;20033;-48
2022/06/14 14:47:05;;;;;;;10.50;2.10;;;;;;;;;;5044233;28;20029;-49
2022/06/14 14:49:38;;;;;;;4.38;1.88;;;;;;;;;;5045910;28;20037;-46
2022/06/14 14:52:14;;;;;;;4.18;1.92;;;;;;;;;;5044114;28;20551;-45
2022/06/14 14:54:52;;;;;;;5.47;2.20;;;;;;;;;;5040539;28;20405;-47
2022/06/14 14:57:44;;;;;;;3.65;1.90;;;;;;;;;;5043312;28;20029;-47
2022/06/14 15:05:20;;;;;;;9.57;2.50;;;;;;;;;;5042136;28;20056;-49
2022/06/14 15:06:16;;;;;;;3.33;1.88;;;;;;;;;;5041541;28;20021;-46
2022/06/14 15:08:52;;;;;;;4.18;2.00;;;;;;;;;;5041574;28;20071;-47
2022/06/14 15:11:20;;;;;;;5.97;2.42;;;;;;;;;;5043859;28;20024;-46
2022/06/14 15:13:49;;;;;;;7.22;2.63;;;;;;;;;;5045134;28;20040;-51
2022/06/14 15:16:34;;;;;;;2.97;1.85;;;;;;;;;;5044960;28;20572;-49
2022/06/14 15:21:52;;;;;;;2.65;1.90;;;;;;;;;;5042758;28;20040;-47
2022/06/14 15:24:25;;;;;;;7.45;2.22;;;;;;;;;;5044988;28;20453;-47
2022/06/14 15:26:59;;;;;;;6.65;2.40;;;;;;;;;;5042758;28;20490;-46
2022/06/14 15:29:31;;;;;;;11.45;2.70;;;;;;;;;;5041144;28;20053;-47
2022/06/14 15:32:02;;;;;;;11.38;2.10;;;;;;;;;;5040780;28;20371;-46
2022/06/14 15:34:32;;;;;;;15.15;2.30;;;;;;;;;;5046491;28;20090;-45
2022/06/14 15:37:04;;;;;;;7.35;2.33;;;;;;;;;;5041652;28;20021;-47
2022/06/14 15:39:33;;;;;;;7.78;2.13;;;;;;;;;;5042816;28;20029;-47
2022/06/14 15:42:21;;;;;;;3.28;1.90;;;;;;;;;;5041778;28;20029;-45
2022/06/14 15:44:47;;;;;;;7.78;2.17;;;;;;;;;;5041172;28;20400;-49
2022/06/14 15:47:13;;;;;;;4.70;1.80;;;;;;;;;;5042867;28;20020;-50
2022/06/14 15:49:51;;;;;;;4.15;2.05;;;;;;;;;;5045981;28;20029;-46
2022/06/14 15:52:20;;;;;;;2.80;1.90;;;;;;;;;;5045333;28;20120;-49
2022/06/14 15:55:15;;;;;;;9.30;1.92;;;;;;;;;;5043086;28;20033;-51
2022/06/14 15:57:50;;;;;;;5.60;1.80;;;;;;;;;;5041858;28;20616;-46
2022/06/14 16:00:20;;;;;;;6.28;2.05;;;;;;;;;;5041046;28;20037;-50
2022/06/14 16:03:08;;;;;;;8.52;2.13;;;;;;;;;;5039591;28;20168;-45
2022/06/14 16:05:50;;;;;;;8.25;2.08;;;;;;;;;;5041545;28;20058;-48